createdAt,value
2017-11-14T00:00:22.072Z,1011.01
2017-11-14T00:01:02.552Z,1011.03
2017-11-14T00:01:43.046Z,1011.02
2017-11-14T00:02:23.524Z,1011.03
2017-11-14T00:03:04.007Z,1010.99
2017-11-14T00:03:44.495Z,1010.95
2017-11-14T00:04:24.989Z,1010.98
2017-11-14T00:05:05.477Z,1010.97
2017-11-14T00:05:45.961Z,1011.02
2017-11-14T00:06:26.449Z,1011.04
2017-11-14T00:07:06.936Z,1011.04
2017-11-14T00:07:47.420Z,1011.06
2017-11-14T00:08:27.910Z,1011.02
2017-11-14T00:09:08.416Z,1011.02
2017-11-14T00:09:48.898Z,1011.09
2017-11-14T00:10:29.384Z,1011.07
2017-11-14T00:11:09.870Z,1011.06
2017-11-14T00:11:50.352Z,1011.11
2017-11-14T00:12:30.841Z,1011.08
2017-11-14T00:13:11.333Z,1011.12
2017-11-14T00:13:51.831Z,1011.11
2017-11-14T00:14:32.314Z,1011.1
2017-11-14T00:15:12.805Z,1011.05
2017-11-14T00:15:53.295Z,1011.11
2017-11-14T00:16:33.779Z,1011.1
2017-11-14T00:17:14.262Z,1011.08
2017-11-14T00:17:54.745Z,1011.09
2017-11-14T00:18:35.225Z,1011.07
2017-11-14T00:19:15.701Z,1011.12
2017-11-14T00:19:56.186Z,1011.11
2017-11-14T00:20:36.661Z,1011.13
2017-11-14T00:21:17.144Z,1011.11
2017-11-14T00:21:57.633Z,1011.11
2017-11-14T00:22:38.115Z,1011.17
2017-11-14T00:23:18.591Z,1011.15
2017-11-14T00:23:59.076Z,1011.15
2017-11-14T00:24:39.572Z,1011.16
2017-11-14T00:25:20.050Z,1011.18
2017-11-14T00:26:00.535Z,1011.17
2017-11-14T00:26:41.018Z,1011.2
2017-11-14T00:27:21.500Z,1011.21
2017-11-14T00:28:01.987Z,1011.23
2017-11-14T00:28:42.485Z,1011.25
2017-11-14T00:29:22.978Z,1011.24
2017-11-14T00:30:03.464Z,1011.22
2017-11-14T00:30:43.946Z,1011.27
2017-11-14T00:31:24.433Z,1011.28
2017-11-14T00:32:04.914Z,1011.3
2017-11-14T00:32:45.397Z,1011.29
2017-11-14T00:33:25.885Z,1011.31
2017-11-14T00:34:06.392Z,1011.32
2017-11-14T00:34:46.880Z,1011.31
2017-11-14T00:35:27.363Z,1011.29
2017-11-14T00:36:07.844Z,1011.3
2017-11-14T00:36:48.327Z,1011.31
2017-11-14T00:37:28.821Z,1011.31
2017-11-14T00:38:09.316Z,1011.3
2017-11-14T00:38:49.794Z,1011.36
2017-11-14T00:39:30.282Z,1011.31
2017-11-14T00:40:10.768Z,1011.32
2017-11-14T00:40:51.250Z,1011.31
2017-11-14T00:41:31.740Z,1011.36
2017-11-14T00:42:12.221Z,1011.29
2017-11-14T00:42:52.697Z,1011.34
2017-11-14T00:43:33.177Z,1011.35
2017-11-14T00:44:13.678Z,1011.35
2017-11-14T00:44:54.161Z,1011.36
2017-11-14T00:45:34.648Z,1011.37
2017-11-14T00:46:15.128Z,1011.36
2017-11-14T00:46:55.605Z,1011.39
2017-11-14T00:47:36.090Z,1011.36
2017-11-14T00:48:16.571Z,1011.39
2017-11-14T00:48:57.056Z,1011.4
2017-11-14T00:49:37.545Z,1011.4
2017-11-14T00:50:18.030Z,1011.38
2017-11-14T00:50:58.527Z,1011.37
2017-11-14T00:51:39.035Z,1011.38
2017-11-14T00:52:19.511Z,1011.39
2017-11-14T00:53:00.009Z,1011.38
2017-11-14T00:53:40.501Z,1011.41
2017-11-14T00:54:20.986Z,1011.42
2017-11-14T00:55:01.479Z,1011.43
2017-11-14T00:55:41.976Z,1011.41
2017-11-14T00:56:22.460Z,1011.47
2017-11-14T00:57:02.928Z,1011.46
2017-11-14T00:57:43.418Z,1011.45
2017-11-14T00:58:23.913Z,1011.41
2017-11-14T00:59:04.396Z,1011.46
2017-11-14T00:59:44.887Z,1011.49
2017-11-14T01:00:25.370Z,1011.51
2017-11-14T01:01:05.851Z,1011.5
2017-11-14T01:01:46.332Z,1011.48
2017-11-14T01:02:26.836Z,1011.49
2017-11-14T01:03:07.327Z,1011.49
2017-11-14T01:03:47.808Z,1011.52
2017-11-14T01:04:28.308Z,1011.53
2017-11-14T01:05:08.802Z,1011.52
2017-11-14T01:05:49.281Z,1011.52
2017-11-14T01:06:29.765Z,1011.52
2017-11-14T01:07:10.243Z,1011.53
2017-11-14T01:07:50.743Z,1011.5
2017-11-14T01:08:31.225Z,1011.55
2017-11-14T01:09:11.712Z,1011.55
2017-11-14T01:09:52.187Z,1011.56
2017-11-14T01:10:32.678Z,1011.57
2017-11-14T01:11:13.162Z,1011.6
2017-11-14T01:11:53.656Z,1011.6
2017-11-14T01:12:34.152Z,1011.6
2017-11-14T01:13:14.634Z,1011.64
2017-11-14T01:13:55.133Z,1011.65
2017-11-14T01:14:35.628Z,1011.6
2017-11-14T01:15:16.115Z,1011.64
2017-11-14T01:15:56.598Z,1011.63
2017-11-14T01:16:37.086Z,1011.63
2017-11-14T01:17:17.567Z,1011.6
2017-11-14T01:17:58.048Z,1011.59
2017-11-14T01:18:38.526Z,1011.64
2017-11-14T01:19:19.029Z,1011.66
2017-11-14T01:19:59.518Z,1011.63
2017-11-14T01:20:39.996Z,1011.59
2017-11-14T01:21:20.477Z,1011.62
2017-11-14T01:22:00.976Z,1011.65
2017-11-14T01:22:41.462Z,1011.66
2017-11-14T01:23:21.943Z,1011.69
2017-11-14T01:24:02.453Z,1011.72
2017-11-14T01:24:42.937Z,1011.71
2017-11-14T01:25:23.428Z,1011.71
2017-11-14T01:26:03.922Z,1011.73
2017-11-14T01:26:44.416Z,1011.7
2017-11-14T01:27:24.889Z,1011.71
2017-11-14T01:28:05.379Z,1011.72
2017-11-14T01:28:45.864Z,1011.67
2017-11-14T01:29:26.350Z,1011.67
2017-11-14T01:30:06.831Z,1011.71
2017-11-14T01:30:47.322Z,1011.68
2017-11-14T01:31:27.805Z,1011.7
2017-11-14T01:32:08.294Z,1011.72
2017-11-14T01:32:48.788Z,1011.71
2017-11-14T01:33:29.277Z,1011.69
2017-11-14T01:34:09.754Z,1011.7
2017-11-14T01:34:50.226Z,1011.71
2017-11-14T01:35:30.720Z,1011.68
2017-11-14T01:36:11.216Z,1011.74
2017-11-14T01:36:51.695Z,1011.71
2017-11-14T01:37:32.180Z,1011.73
2017-11-14T01:38:12.671Z,1011.73
2017-11-14T01:38:53.148Z,1011.72
2017-11-14T01:39:33.635Z,1011.72
2017-11-14T01:40:14.105Z,1011.76
2017-11-14T01:40:54.586Z,1011.79
2017-11-14T01:41:35.086Z,1011.73
2017-11-14T01:42:15.563Z,1011.78
2017-11-14T01:42:56.050Z,1011.76
2017-11-14T01:43:36.532Z,1011.74
2017-11-14T01:44:17.036Z,1011.76
2017-11-14T01:44:57.525Z,1011.75
2017-11-14T01:45:38.011Z,1011.75
2017-11-14T01:46:18.496Z,1011.76
2017-11-14T01:46:58.983Z,1011.77
2017-11-14T01:47:39.478Z,1011.76
2017-11-14T01:48:19.975Z,1011.75
2017-11-14T01:49:00.455Z,1011.74
2017-11-14T01:49:40.948Z,1011.74
2017-11-14T01:50:21.429Z,1011.7
2017-11-14T01:51:01.913Z,1011.71
2017-11-14T01:51:42.395Z,1011.71
2017-11-14T01:52:22.896Z,1011.71
2017-11-14T01:53:03.387Z,1011.7
2017-11-14T01:53:43.870Z,1011.66
2017-11-14T01:54:24.363Z,1011.69
2017-11-14T01:55:04.835Z,1011.67
2017-11-14T01:55:45.321Z,1011.69
2017-11-14T01:56:25.803Z,1011.76
2017-11-14T01:57:06.269Z,1011.72
2017-11-14T01:57:46.767Z,1011.69
2017-11-14T01:58:27.260Z,1011.69
2017-11-14T01:59:07.737Z,1011.71
2017-11-14T01:59:48.216Z,1011.73
2017-11-14T02:00:28.711Z,1011.7
2017-11-14T02:01:09.196Z,1011.68
2017-11-14T02:01:49.677Z,1011.71
2017-11-14T02:02:30.163Z,1011.68
2017-11-14T02:03:10.659Z,1011.69
2017-11-14T02:03:51.148Z,1011.67
2017-11-14T02:04:31.633Z,1011.65
2017-11-14T02:05:12.127Z,1011.62
2017-11-14T02:05:52.609Z,1011.63
2017-11-14T02:06:33.081Z,1011.64
2017-11-14T02:07:13.567Z,1011.65
2017-11-14T02:07:54.052Z,1011.65
2017-11-14T02:08:34.541Z,1011.62
2017-11-14T02:09:15.025Z,1011.64
2017-11-14T02:09:55.501Z,1011.59
2017-11-14T02:10:35.994Z,1011.62
2017-11-14T02:11:16.482Z,1011.65
2017-11-14T02:11:56.959Z,1011.64
2017-11-14T02:12:37.445Z,1011.6
2017-11-14T02:13:17.938Z,1011.6
2017-11-14T02:13:58.403Z,1011.6
2017-11-14T02:14:38.891Z,1011.65
2017-11-14T02:15:19.360Z,1011.64
2017-11-14T02:15:59.854Z,1011.64
2017-11-14T02:16:40.348Z,1011.66
2017-11-14T02:17:20.836Z,1011.66
2017-11-14T02:18:01.338Z,1011.66
2017-11-14T02:18:41.825Z,1011.67
2017-11-14T02:19:22.307Z,1011.69
2017-11-14T02:20:02.787Z,1011.73
2017-11-14T02:20:43.282Z,1011.73
2017-11-14T02:21:23.762Z,1011.74
2017-11-14T02:22:04.243Z,1011.73
2017-11-14T02:22:44.720Z,1011.75
2017-11-14T02:23:25.239Z,1011.78
2017-11-14T02:24:05.726Z,1011.78
2017-11-14T02:24:46.196Z,1011.84
2017-11-14T02:25:26.691Z,1011.84
2017-11-14T02:26:07.179Z,1011.87
2017-11-14T02:26:47.661Z,1011.85
2017-11-14T02:27:28.134Z,1011.85
2017-11-14T02:28:08.626Z,1011.83
2017-11-14T02:28:49.116Z,1011.84
2017-11-14T02:29:29.598Z,1011.86
2017-11-14T02:30:10.078Z,1011.87
2017-11-14T02:30:50.565Z,1011.89
2017-11-14T02:31:31.045Z,1011.88
2017-11-14T02:32:11.529Z,1011.84
2017-11-14T02:32:52.016Z,1011.88
2017-11-14T02:33:32.509Z,1011.89
2017-11-14T02:34:12.997Z,1011.88
2017-11-14T02:34:53.476Z,1011.88
2017-11-14T02:35:33.970Z,1011.87
2017-11-14T02:36:14.457Z,1011.9
2017-11-14T02:36:54.943Z,1011.86
2017-11-14T02:37:35.433Z,1011.95
2017-11-14T02:38:15.934Z,1011.94
2017-11-14T02:38:56.411Z,1011.93
2017-11-14T02:39:36.902Z,1011.95
2017-11-14T02:40:17.378Z,1011.94
2017-11-14T02:40:57.881Z,1011.93
2017-11-14T02:41:38.357Z,1011.96
2017-11-14T02:42:18.853Z,1011.94
2017-11-14T02:42:59.346Z,1011.97
2017-11-14T02:43:39.828Z,1011.95
2017-11-14T02:44:20.318Z,1011.97
2017-11-14T02:45:00.799Z,1012.01
2017-11-14T02:45:41.286Z,1011.98
2017-11-14T02:46:21.764Z,1011.98
2017-11-14T02:47:02.243Z,1012.06
2017-11-14T02:47:42.722Z,1012.02
2017-11-14T02:48:23.221Z,1012
2017-11-14T02:49:03.699Z,1012.07
2017-11-14T02:49:44.185Z,1012.06
2017-11-14T02:50:24.686Z,1012.1
2017-11-14T02:51:05.169Z,1012.1
2017-11-14T02:51:45.640Z,1012.1
2017-11-14T02:52:26.138Z,1012.1
2017-11-14T02:53:06.629Z,1012.12
2017-11-14T02:53:47.110Z,1012.14
2017-11-14T02:54:27.593Z,1012.16
2017-11-14T02:55:08.078Z,1012.16
2017-11-14T02:55:48.565Z,1012.19
2017-11-14T02:56:29.047Z,1012.18
2017-11-14T02:57:09.521Z,1012.15
2017-11-14T02:57:50.015Z,1012.15
2017-11-14T02:58:30.500Z,1012.13
2017-11-14T02:59:10.988Z,1012.11
2017-11-14T02:59:51.485Z,1012.14
2017-11-14T03:00:31.976Z,1012.13
2017-11-14T03:01:12.460Z,1012.1
2017-11-14T03:01:52.947Z,1012.1
2017-11-14T03:02:33.444Z,1012.07
2017-11-14T03:03:13.914Z,1012.09
2017-11-14T03:03:54.397Z,1012.13
2017-11-14T03:04:34.895Z,1012.11
2017-11-14T03:05:15.390Z,1012.11
2017-11-14T03:05:55.870Z,1012.11
2017-11-14T03:06:36.361Z,1012.12
2017-11-14T03:07:16.855Z,1012.12
2017-11-14T03:07:57.338Z,1012.1
2017-11-14T03:08:37.826Z,1012.1
2017-11-14T03:09:18.286Z,1012.15
2017-11-14T03:09:58.764Z,1012.1
2017-11-14T03:10:39.260Z,1012.12
2017-11-14T03:11:19.737Z,1012.12
2017-11-14T03:12:00.212Z,1012.17
2017-11-14T03:12:40.702Z,1012.16
2017-11-14T03:13:21.196Z,1012.13
2017-11-14T03:14:01.678Z,1012.12
2017-11-14T03:14:42.163Z,1012.09
2017-11-14T03:15:22.653Z,1012.12
2017-11-14T03:16:03.139Z,1012.12
2017-11-14T03:16:43.612Z,1012.15
2017-11-14T03:17:24.098Z,1012.13
2017-11-14T03:18:04.599Z,1012.14
2017-11-14T03:18:45.074Z,1012.15
2017-11-14T03:19:25.550Z,1012.13
2017-11-14T03:20:06.028Z,1012.17
2017-11-14T03:20:46.534Z,1012.17
2017-11-14T03:21:27.018Z,1012.16
2017-11-14T03:22:07.504Z,1012.15
2017-11-14T03:22:47.992Z,1012.16
2017-11-14T03:23:28.484Z,1012.21
2017-11-14T03:24:08.968Z,1012.2
2017-11-14T03:24:49.461Z,1012.23
2017-11-14T03:25:29.965Z,1012.23
2017-11-14T03:26:10.433Z,1012.26
2017-11-14T03:26:50.905Z,1012.21
2017-11-14T03:27:31.392Z,1012.23
2017-11-14T03:28:11.884Z,1012.23
2017-11-14T03:28:52.367Z,1012.21
2017-11-14T03:29:32.875Z,1012.23
2017-11-14T03:30:13.368Z,1012.2
2017-11-14T03:30:53.852Z,1012.2
2017-11-14T03:31:34.351Z,1012.23
2017-11-14T03:32:14.848Z,1012.23
2017-11-14T03:32:55.334Z,1012.21
2017-11-14T03:33:35.810Z,1012.22
2017-11-14T03:34:16.304Z,1012.23
2017-11-14T03:34:56.784Z,1012.24
2017-11-14T03:35:37.266Z,1012.26
2017-11-14T03:36:17.739Z,1012.26
2017-11-14T03:36:58.215Z,1012.26
2017-11-14T03:37:38.717Z,1012.3
2017-11-14T03:38:19.197Z,1012.24
2017-11-14T03:38:59.683Z,1012.27
2017-11-14T03:39:40.176Z,1012.25
2017-11-14T03:40:20.655Z,1012.28
2017-11-14T03:41:01.138Z,1012.27
2017-11-14T03:41:41.612Z,1012.29
2017-11-14T03:42:22.102Z,1012.27
2017-11-14T03:43:02.597Z,1012.27
2017-11-14T03:43:43.075Z,1012.31
2017-11-14T03:44:23.567Z,1012.3
2017-11-14T03:45:04.061Z,1012.34
2017-11-14T03:45:44.538Z,1012.29
2017-11-14T03:46:25.004Z,1012.35
2017-11-14T03:47:05.485Z,1012.28
2017-11-14T03:47:45.972Z,1012.31
2017-11-14T03:48:26.464Z,1012.31
2017-11-14T03:49:06.942Z,1012.33
2017-11-14T03:49:47.440Z,1012.31
2017-11-14T03:50:27.937Z,1012.3
2017-11-14T03:51:08.418Z,1012.3
2017-11-14T03:51:48.915Z,1012.33
2017-11-14T03:52:29.411Z,1012.33
2017-11-14T03:53:09.895Z,1012.33
2017-11-14T03:53:50.375Z,1012.36
2017-11-14T03:54:30.861Z,1012.31
2017-11-14T03:55:11.354Z,1012.35
2017-11-14T03:55:51.830Z,1012.35
2017-11-14T03:56:32.303Z,1012.33
2017-11-14T03:57:12.795Z,1012.35
2017-11-14T03:57:53.284Z,1012.34
2017-11-14T03:58:33.767Z,1012.34
2017-11-14T03:59:14.257Z,1012.35
2017-11-14T03:59:54.738Z,1012.37
2017-11-14T04:00:35.226Z,1012.38
2017-11-14T04:01:15.713Z,1012.39
2017-11-14T04:01:56.211Z,1012.4
2017-11-14T04:02:36.700Z,1012.44
2017-11-14T04:03:17.191Z,1012.42
2017-11-14T04:03:57.685Z,1012.42
2017-11-14T04:04:38.182Z,1012.43
2017-11-14T04:05:18.676Z,1012.4
2017-11-14T04:05:59.166Z,1012.43
2017-11-14T04:06:39.650Z,1012.43
2017-11-14T04:07:20.136Z,1012.43
2017-11-14T04:08:00.635Z,1012.42
2017-11-14T04:08:41.128Z,1012.41
2017-11-14T04:09:21.610Z,1012.39
2017-11-14T04:10:02.096Z,1012.42
2017-11-14T04:10:42.583Z,1012.46
2017-11-14T04:11:23.065Z,1012.45
2017-11-14T04:12:03.545Z,1012.44
2017-11-14T04:12:44.034Z,1012.43
2017-11-14T04:13:24.509Z,1012.45
2017-11-14T04:14:04.999Z,1012.47
2017-11-14T04:14:45.492Z,1012.48
2017-11-14T04:15:25.986Z,1012.51
2017-11-14T04:16:06.477Z,1012.52
2017-11-14T04:16:46.961Z,1012.5
2017-11-14T04:17:27.446Z,1012.5
2017-11-14T04:18:07.943Z,1012.5
2017-11-14T04:18:48.434Z,1012.49
2017-11-14T04:19:28.912Z,1012.5
2017-11-14T04:20:09.401Z,1012.5
2017-11-14T04:20:49.888Z,1012.51
2017-11-14T04:21:30.373Z,1012.47
2017-11-14T04:22:10.867Z,1012.49
2017-11-14T04:22:51.356Z,1012.51
2017-11-14T04:23:31.843Z,1012.51
2017-11-14T04:24:12.327Z,1012.48
2017-11-14T04:24:52.809Z,1012.46
2017-11-14T04:25:33.322Z,1012.52
2017-11-14T04:26:13.784Z,1012.51
2017-11-14T04:26:54.283Z,1012.51
2017-11-14T04:27:34.780Z,1012.52
2017-11-14T04:28:15.261Z,1012.51
2017-11-14T04:28:55.748Z,1012.53
2017-11-14T04:29:36.251Z,1012.53
2017-11-14T04:30:16.719Z,1012.57
2017-11-14T04:30:57.197Z,1012.56
2017-11-14T04:31:37.683Z,1012.57
2017-11-14T04:32:18.169Z,1012.58
2017-11-14T04:32:58.650Z,1012.57
2017-11-14T04:33:39.122Z,1012.55
2017-11-14T04:34:19.605Z,1012.56
2017-11-14T04:35:00.089Z,1012.6
2017-11-14T04:35:40.592Z,1012.57
2017-11-14T04:36:21.069Z,1012.61
2017-11-14T04:37:01.568Z,1012.61
2017-11-14T04:37:42.062Z,1012.63
2017-11-14T04:38:22.546Z,1012.61
2017-11-14T04:39:03.032Z,1012.62
2017-11-14T04:41:30.957Z,1012.63
2017-11-14T04:42:11.443Z,1012.69
2017-11-14T04:42:51.923Z,1012.68
2017-11-14T04:43:32.424Z,1012.68
2017-11-14T04:44:12.925Z,1012.67
2017-11-14T04:44:53.391Z,1012.69
2017-11-14T04:45:33.880Z,1012.68
2017-11-14T04:46:14.369Z,1012.68
2017-11-14T04:46:54.853Z,1012.67
2017-11-14T04:47:35.340Z,1012.7
2017-11-14T04:48:15.808Z,1012.67
2017-11-14T04:48:56.298Z,1012.7
2017-11-14T04:49:36.790Z,1012.7
2017-11-14T04:50:17.270Z,1012.69
2017-11-14T04:50:57.756Z,1012.69
2017-11-14T04:51:38.243Z,1012.67
2017-11-14T04:52:18.724Z,1012.7
2017-11-14T04:52:59.215Z,1012.71
2017-11-14T04:53:39.679Z,1012.67
2017-11-14T04:54:20.168Z,1012.72
2017-11-14T04:55:00.664Z,1012.71
2017-11-14T04:55:41.144Z,1012.71
2017-11-14T04:56:21.630Z,1012.72
2017-11-14T04:57:02.114Z,1012.72
2017-11-14T04:57:42.602Z,1012.72
2017-11-14T04:58:23.080Z,1012.72
2017-11-14T04:59:03.569Z,1012.68
2017-11-14T04:59:44.076Z,1012.68
2017-11-14T05:00:24.553Z,1012.72
2017-11-14T05:01:05.025Z,1012.7
2017-11-14T05:01:45.527Z,1012.71
2017-11-14T05:02:26.001Z,1012.74
2017-11-14T05:03:06.488Z,1012.78
2017-11-14T05:03:46.969Z,1012.75
2017-11-14T05:04:27.487Z,1012.76
2017-11-14T05:05:07.968Z,1012.76
2017-11-14T05:05:48.451Z,1012.75
2017-11-14T05:06:28.940Z,1012.74
2017-11-14T05:07:09.427Z,1012.78
2017-11-14T05:07:49.903Z,1012.79
2017-11-14T05:08:30.389Z,1012.8
2017-11-14T05:09:10.882Z,1012.81
2017-11-14T05:09:51.359Z,1012.82
2017-11-14T05:10:31.840Z,1012.81
2017-11-14T05:11:12.319Z,1012.81
2017-11-14T05:11:52.797Z,1012.84
2017-11-14T05:12:33.284Z,1012.84
2017-11-14T05:13:13.773Z,1012.86
2017-11-14T05:13:54.254Z,1012.8
2017-11-14T05:14:34.747Z,1012.8
2017-11-14T05:15:15.230Z,1012.81
2017-11-14T05:15:55.710Z,1012.78
2017-11-14T05:16:36.196Z,1012.84
2017-11-14T05:17:16.696Z,1012.83
2017-11-14T05:17:57.171Z,1012.84
2017-11-14T05:18:37.646Z,1012.86
2017-11-14T05:19:18.144Z,1012.85
2017-11-14T05:19:58.644Z,1012.89
2017-11-14T05:20:39.213Z,1012.85
2017-11-14T05:21:19.764Z,1012.88
2017-11-14T05:22:00.250Z,1012.89
2017-11-14T05:22:40.743Z,1012.89
2017-11-14T05:23:21.237Z,1012.92
2017-11-14T05:24:01.723Z,1012.94
2017-11-14T05:24:42.205Z,1012.94
2017-11-14T05:25:22.687Z,1012.97
2017-11-14T05:26:03.183Z,1012.97
2017-11-14T05:26:43.660Z,1012.94
2017-11-14T05:27:24.154Z,1012.96
2017-11-14T05:28:04.660Z,1012.98
2017-11-14T05:28:45.133Z,1012.96
2017-11-14T05:29:25.614Z,1012.99
2017-11-14T05:30:06.098Z,1013.01
2017-11-14T05:30:46.568Z,1012.97
2017-11-14T05:31:27.052Z,1013
2017-11-14T05:32:07.533Z,1012.98
2017-11-14T05:32:48.030Z,1013
2017-11-14T05:33:28.519Z,1013.02
2017-11-14T05:34:09.005Z,1013.02
2017-11-14T05:34:49.493Z,1013.05
2017-11-14T05:35:29.990Z,1013.07
2017-11-14T05:36:10.473Z,1013.07
2017-11-14T05:36:50.953Z,1013.1
2017-11-14T05:37:31.440Z,1013.07
2017-11-14T05:38:11.937Z,1013.1
2017-11-14T05:38:52.416Z,1013.1
2017-11-14T05:39:32.908Z,1013.13
2017-11-14T05:40:13.397Z,1013.17
2017-11-14T05:40:53.882Z,1013.15
2017-11-14T05:41:34.364Z,1013.17
2017-11-14T05:42:14.859Z,1013.15
2017-11-14T05:42:55.346Z,1013.12
2017-11-14T05:43:35.828Z,1013.17
2017-11-14T05:44:16.315Z,1013.11
2017-11-14T05:44:56.815Z,1013.15
2017-11-14T05:45:37.284Z,1013.14
2017-11-14T05:46:17.766Z,1013.15
2017-11-14T05:46:58.253Z,1013.12
2017-11-14T05:47:38.729Z,1013.14
2017-11-14T05:48:19.217Z,1013.17
2017-11-14T05:48:59.701Z,1013.16
2017-11-14T05:49:40.189Z,1013.19
2017-11-14T05:50:20.683Z,1013.18
2017-11-14T05:51:01.168Z,1013.25
2017-11-14T05:51:41.619Z,1013.26
2017-11-14T05:52:22.096Z,1013.28
2017-11-14T05:53:02.576Z,1013.27
2017-11-14T05:53:43.076Z,1013.29
2017-11-14T05:54:23.566Z,1013.28
2017-11-14T05:55:04.058Z,1013.32
2017-11-14T05:55:44.535Z,1013.31
2017-11-14T05:56:25.026Z,1013.3
2017-11-14T05:57:05.511Z,1013.31
2017-11-14T05:57:45.984Z,1013.31
2017-11-14T05:58:26.471Z,1013.35
2017-11-14T05:59:06.965Z,1013.34
2017-11-14T05:59:47.439Z,1013.34
2017-11-14T06:00:27.925Z,1013.33
2017-11-14T06:01:08.429Z,1013.33
2017-11-14T06:01:48.903Z,1013.37
2017-11-14T06:02:29.382Z,1013.38
2017-11-14T06:03:09.857Z,1013.37
2017-11-14T06:03:50.343Z,1013.4
2017-11-14T06:04:30.829Z,1013.42
2017-11-14T06:05:11.304Z,1013.42
2017-11-14T06:05:51.785Z,1013.41
2017-11-14T06:06:32.254Z,1013.45
2017-11-14T06:07:12.731Z,1013.47
2017-11-14T06:07:53.223Z,1013.46
2017-11-14T06:08:33.698Z,1013.42
2017-11-14T06:09:14.186Z,1013.49
2017-11-14T06:09:54.756Z,1013.51
2017-11-14T06:10:35.232Z,1013.48
2017-11-14T06:11:15.719Z,1013.49
2017-11-14T06:11:56.203Z,1013.48
2017-11-14T06:12:36.690Z,1013.51
2017-11-14T06:13:17.186Z,1013.51
2017-11-14T06:13:57.670Z,1013.54
2017-11-14T06:14:38.134Z,1013.54
2017-11-14T06:15:18.623Z,1013.56
2017-11-14T06:15:59.658Z,1013.54
2017-11-14T06:16:40.131Z,1013.57
2017-11-14T06:17:20.628Z,1013.56
2017-11-14T06:18:01.121Z,1013.54
2017-11-14T06:18:42.301Z,1013.54
2017-11-14T06:19:22.784Z,1013.6
2017-11-14T06:20:03.238Z,1013.58
2017-11-14T06:20:43.705Z,1013.6
2017-11-14T06:21:24.205Z,1013.59
2017-11-14T06:22:04.691Z,1013.58
2017-11-14T06:22:45.174Z,1013.6
2017-11-14T06:23:25.663Z,1013.58
2017-11-14T06:24:06.154Z,1013.63
2017-11-14T06:24:46.646Z,1013.63
2017-11-14T06:25:27.126Z,1013.61
2017-11-14T06:26:07.597Z,1013.63
2017-11-14T06:26:48.102Z,1013.61
2017-11-14T06:27:28.589Z,1013.59
2017-11-14T06:28:09.112Z,1013.65
2017-11-14T06:28:49.600Z,1013.66
2017-11-14T06:29:30.077Z,1013.65
2017-11-14T06:30:10.570Z,1013.67
2017-11-14T06:30:51.061Z,1013.69
2017-11-14T06:31:31.545Z,1013.69
2017-11-14T06:32:12.039Z,1013.7
2017-11-14T06:32:52.533Z,1013.68
2017-11-14T06:33:33.017Z,1013.74
2017-11-14T06:34:13.502Z,1013.73
2017-11-14T06:34:53.982Z,1013.72
2017-11-14T06:35:34.491Z,1013.75
2017-11-14T06:36:14.980Z,1013.76
2017-11-14T06:36:55.561Z,1013.73
2017-11-14T06:37:36.047Z,1013.76
2017-11-14T06:38:16.566Z,1013.72
2017-11-14T06:38:57.069Z,1013.75
2017-11-14T06:39:37.596Z,1013.76
2017-11-14T06:40:18.092Z,1013.77
2017-11-14T06:40:58.596Z,1013.76
2017-11-14T06:41:39.126Z,1013.79
2017-11-14T06:42:19.613Z,1013.77
2017-11-14T06:43:00.108Z,1013.78
2017-11-14T06:43:40.626Z,1013.79
2017-11-14T06:44:21.093Z,1013.83
2017-11-14T06:45:01.611Z,1013.81
2017-11-14T06:45:42.093Z,1013.82
2017-11-14T06:46:22.595Z,1013.78
2017-11-14T06:47:03.107Z,1013.8
2017-11-14T06:47:43.628Z,1013.77
2017-11-14T06:48:24.106Z,1013.79
2017-11-14T06:49:04.616Z,1013.81
2017-11-14T06:49:45.136Z,1013.85
2017-11-14T06:50:25.670Z,1013.83
2017-11-14T06:51:06.167Z,1013.84
2017-11-14T06:51:46.687Z,1013.85
2017-11-14T06:52:27.244Z,1013.85
2017-11-14T06:53:07.767Z,1013.87
2017-11-14T06:53:48.258Z,1013.86
2017-11-14T06:54:28.745Z,1013.86
2017-11-14T06:55:09.242Z,1013.86
2017-11-14T06:55:49.734Z,1013.9
2017-11-14T06:56:30.229Z,1013.9
2017-11-14T06:57:10.702Z,1013.91
2017-11-14T06:57:51.198Z,1013.93
2017-11-14T06:58:31.698Z,1013.99
2017-11-14T06:59:12.169Z,1013.96
2017-11-14T06:59:52.635Z,1013.96
2017-11-14T07:00:33.086Z,1013.91
2017-11-14T07:01:13.560Z,1013.93
2017-11-14T07:01:54.048Z,1013.97
2017-11-14T07:02:34.540Z,1013.99
2017-11-14T07:03:15.053Z,1013.96
2017-11-14T07:03:55.528Z,1013.96
2017-11-14T07:04:36.020Z,1013.95
2017-11-14T07:05:16.505Z,1013.97
2017-11-14T07:05:56.972Z,1014.01
2017-11-14T07:06:37.456Z,1014.04
2017-11-14T07:07:17.952Z,1014.03
2017-11-14T07:07:58.429Z,1014.07
2017-11-14T07:08:38.916Z,1014.07
2017-11-14T07:09:19.403Z,1014.1
2017-11-14T07:09:59.899Z,1014.08
2017-11-14T07:10:40.392Z,1014.12
2017-11-14T07:11:20.876Z,1014.11
2017-11-14T07:12:01.366Z,1014.13
2017-11-14T07:12:41.843Z,1014.13
2017-11-14T07:13:22.330Z,1014.16
2017-11-14T07:14:02.796Z,1014.14
2017-11-14T07:14:43.335Z,1014.17
2017-11-14T07:15:23.824Z,1014.23
2017-11-14T07:16:04.320Z,1014.19
2017-11-14T07:16:44.823Z,1014.21
2017-11-14T07:17:25.327Z,1014.2
2017-11-14T07:18:05.847Z,1014.24
2017-11-14T07:18:46.349Z,1014.27
2017-11-14T07:19:26.837Z,1014.26
2017-11-14T07:21:44.622Z,1014.23
2017-11-14T07:22:25.116Z,1014.28
2017-11-14T07:23:05.610Z,1014.28
2017-11-14T07:23:46.076Z,1014.32
2017-11-14T07:24:26.560Z,1014.31
2017-11-14T07:25:07.061Z,1014.31
2017-11-14T07:25:47.533Z,1014.33
2017-11-14T07:26:28.013Z,1014.3
2017-11-14T07:27:08.482Z,1014.3
2017-11-14T07:27:48.974Z,1014.34
2017-11-14T07:28:29.487Z,1014.36
2017-11-14T07:29:09.959Z,1014.33
2017-11-14T07:29:50.452Z,1014.31
2017-11-14T07:30:30.948Z,1014.36
2017-11-14T07:31:11.429Z,1014.34
2017-11-14T07:31:51.919Z,1014.35
2017-11-14T07:32:32.455Z,1014.33
2017-11-14T07:33:12.988Z,1014.34
2017-11-14T07:33:53.465Z,1014.37
2017-11-14T07:34:33.938Z,1014.4
2017-11-14T07:35:14.386Z,1014.38
2017-11-14T07:35:54.859Z,1014.37
2017-11-14T07:36:35.445Z,1014.42
2017-11-14T07:37:16.079Z,1014.41
2017-11-14T07:37:56.644Z,1014.38
2017-11-14T07:38:37.186Z,1014.38
2017-11-14T07:39:17.764Z,1014.42
2017-11-14T07:39:58.316Z,1014.4
2017-11-14T07:40:38.834Z,1014.39
2017-11-14T07:41:19.375Z,1014.4
2017-11-14T07:41:59.922Z,1014.43
2017-11-14T07:42:40.441Z,1014.49
2017-11-14T07:43:21.042Z,1014.48
2017-11-14T07:44:01.632Z,1014.57
2017-11-14T07:44:42.217Z,1014.6
2017-11-14T07:45:22.760Z,1014.57
2017-11-14T07:46:03.328Z,1014.52
2017-11-14T07:46:43.900Z,1014.49
2017-11-14T07:47:24.464Z,1014.46
2017-11-14T07:48:05.075Z,1014.46
2017-11-14T07:48:45.683Z,1014.49
2017-11-14T07:49:26.267Z,1014.5
2017-11-14T07:50:06.851Z,1014.52
2017-11-14T07:50:47.413Z,1014.63
2017-11-14T07:51:27.994Z,1014.57
2017-11-14T07:52:08.581Z,1014.58
2017-11-14T07:52:49.137Z,1014.56
2017-11-14T07:53:29.709Z,1014.51
2017-11-14T07:54:10.295Z,1014.48
2017-11-14T07:54:50.924Z,1014.48
2017-11-14T07:55:31.392Z,1014.51
2017-11-14T07:56:11.866Z,1014.53
2017-11-14T07:56:52.323Z,1014.57
2017-11-14T07:57:32.780Z,1014.53
2017-11-14T07:58:13.426Z,1014.52
2017-11-14T07:58:53.939Z,1014.5
2017-11-14T07:59:34.430Z,1014.53
2017-11-14T08:00:14.923Z,1014.57
2017-11-14T08:00:55.407Z,1014.55
2017-11-14T08:01:35.917Z,1014.61
2017-11-14T08:02:16.402Z,1014.59
2017-11-14T08:02:56.894Z,1014.57
2017-11-14T08:03:37.395Z,1014.58
2017-11-14T08:04:17.884Z,1014.6
2017-11-14T08:04:58.394Z,1014.64
2017-11-14T08:05:38.890Z,1014.62
2017-11-14T08:06:19.384Z,1014.69
2017-11-14T08:06:59.864Z,1014.65
2017-11-14T08:07:40.389Z,1014.62
2017-11-14T08:08:20.891Z,1014.63
2017-11-14T08:09:01.389Z,1014.69
2017-11-14T08:09:41.984Z,1014.69
2017-11-14T08:10:22.593Z,1014.69
2017-11-14T08:11:03.236Z,1014.67
2017-11-14T08:11:43.887Z,1014.63
2017-11-14T08:12:24.479Z,1014.61
2017-11-14T08:13:05.042Z,1014.65
2017-11-14T08:13:45.532Z,1014.62
2017-11-14T08:14:26.082Z,1014.64
2017-11-14T08:15:06.605Z,1014.67